Bethlehem, West Virginia
Current Conditions -  °F | °C
As of 12:53 AM on Wednesday 22 Oct 2014 (Local Time) from KHLG Reporting Station
Light Rain Light Rain  
Wind Chill: 42°   Ceiling: 300
Heat Index: 46°   Visibility: 2.5mi
Dew Point: 45°   Wind: 7mph
Humidity: 96%   Direction: 310°NW
Pressure: 30.04"   Gusts: NA
Location:  40.0729°N, 80.6524°W
Report Text: KHLG 220453Z AUTO 31006KT 2 1/2SM -RA BR OVC003 08/07 A3004 RMK AO2 SLP178 P0006 T00780072 401110078
Loading
Personal Weather Stations






























Interactive Weather Map
Tropical Storm Tracking
New forecast layout! Learn more

10-Day Weather Forecast

Advertisements
Track Severe Weather on mobile